Time;durP1;ratioP1;P1;durP2;ratioP2;P2;SDS_P1;SDS_P2;PMS_P1;PMS_P2;Temp;Humidity;BMP_temperature;BMP_pressure;BME280_temperature;BME280_humidity;BME280_pressure;Samples;Min_cycle;Max_cycle;Signal;HPM_P1;HPM_P2
2022/12/23 00:01:24;;;;;;;1999.90;999.90;;;13.60;99.90;;;;;;5052814;28;20025;-73
2022/12/23 00:03:50;;;;;;;1999.90;999.90;;;13.60;99.90;;;;;;5052653;28;20048;-75
2022/12/23 00:06:17;;;;;;;1999.90;999.90;;;13.60;99.90;;;;;;5050719;28;20479;-73
2022/12/23 00:08:43;;;;;;;1999.90;999.90;;;13.60;99.90;;;;;;5052459;28;20488;-75
2022/12/23 00:11:19;;;;;;;1999.90;999.90;;;13.70;99.90;;;;;;5052213;28;20029;-74
2022/12/23 00:16:29;;;;;;;1999.90;999.90;;;13.70;99.90;;;;;;5052774;28;20036;-76
2022/12/23 00:18:55;;;;;;;1999.90;999.90;;;13.70;99.90;;;;;;5052285;28;20099;-73
2022/12/23 00:21:22;;;;;;;1999.90;999.90;;;13.70;99.90;;;;;;5052012;28;20108;-75
2022/12/23 00:23:49;;;;;;;1999.90;999.90;;;13.70;99.90;;;;;;5052365;28;20033;-73
2022/12/23 00:26:24;;;;;;;1999.90;999.90;;;13.70;99.90;;;;;;5051698;28;20472;-75
2022/12/23 00:28:50;;;;;;;1999.90;999.90;;;13.60;99.90;;;;;;5052171;28;20033;-75
2022/12/23 00:31:20;;;;;;;1999.90;999.90;;;13.70;99.90;;;;;;5052082;28;20091;-76
2022/12/23 00:33:47;;;;;;;1999.90;999.90;;;13.70;99.90;;;;;;5052168;28;20025;-74
2022/12/23 00:36:36;;;;;;;1999.90;999.90;;;13.70;99.90;;;;;;5051713;28;20017;-76
2022/12/23 00:44:30;;;;;;;1999.90;999.90;;;13.60;99.90;;;;;;5051761;28;20114;-74
2022/12/23 00:46:55;;;;;;;1999.90;999.90;;;13.50;99.90;;;;;;5051922;28;20456;-75
2022/12/23 00:52:08;;;;;;;1999.90;999.90;;;13.30;99.90;;;;;;5052028;28;20087;-75
2022/12/23 00:54:33;;;;;;;1999.90;999.90;;;13.20;99.90;;;;;;5054149;28;20108;-76
2022/12/23 00:57:00;;;;;;;1999.90;999.90;;;13.10;99.90;;;;;;5055121;28;20100;-74
2022/12/23 00:59:25;;;;;;;1999.90;999.90;;;13.10;99.90;;;;;;5056154;28;20071;-74
2022/12/23 01:07:20;;;;;;;1999.90;999.90;;;13.40;99.90;;;;;;5055944;28;20519;-75
2022/12/23 01:09:46;;;;;;;1999.90;999.90;;;13.60;99.90;;;;;;5055899;28;20404;-76
2022/12/23 01:12:12;;;;;;;1999.90;999.90;;;13.60;99.90;;;;;;5055578;28;20029;-75
2022/12/23 01:14:38;;;;;;;1999.90;999.90;;;13.70;99.90;;;;;;5054814;28;20465;-76
2022/12/23 01:17:05;;;;;;;1999.90;999.90;;;13.80;99.90;;;;;;5055039;28;20025;-74
2022/12/23 01:19:30;;;;;;;1999.90;999.90;;;13.80;99.90;;;;;;5055756;28;20029;-73
2022/12/23 01:21:56;;;;;;;1999.90;999.90;;;13.80;99.90;;;;;;5055712;28;20113;-76
2022/12/23 01:24:22;;;;;;;1999.90;999.90;;;13.80;99.90;;;;;;5055392;28;20044;-75
2022/12/23 01:26:47;;;;;;;1999.90;999.90;;;13.80;99.90;;;;;;5055250;28;20035;-74
2022/12/23 01:29:13;;;;;;;1999.90;999.90;;;13.80;99.90;;;;;;5055530;28;20064;-74
2022/12/23 01:31:39;;;;;;;1999.90;999.90;;;13.70;99.90;;;;;;5055765;28;20122;-75
2022/12/23 01:34:04;;;;;;;1999.90;999.90;;;13.70;99.90;;;;;;5055714;28;20013;-76
2022/12/23 01:36:30;;;;;;;1999.90;999.90;;;13.80;99.90;;;;;;5055381;28;20059;-75
2022/12/23 01:38:56;;;;;;;1999.90;999.90;;;13.70;99.90;;;;;;5055446;28;20125;-73
2022/12/23 01:44:47;;;;;;;1999.90;999.90;;;13.60;99.90;;;;;;5055507;28;20484;-73
2022/12/23 01:47:20;;;;;;;1999.90;999.90;;;13.70;99.90;;;;;;5035314;28;20488;-75
2022/12/23 01:49:48;;;;;;;1999.90;999.90;;;13.80;99.90;;;;;;5035451;28;20025;-73
2022/12/23 01:52:14;;;;;;;1999.90;999.90;;;13.80;99.90;;;;;;5035059;28;20108;-73
2022/12/23 01:54:40;;;;;;;1999.90;999.90;;;13.80;99.90;;;;;;5035227;28;20148;-76
2022/12/23 01:57:06;;;;;;;1999.90;999.90;;;13.70;99.90;;;;;;5034559;28;20083;-75
2022/12/23 02:05:01;;;;;;;1999.90;999.90;;;13.40;99.90;;;;;;5034572;28;20168;-74
2022/12/23 02:10:11;;;;;;;1999.90;999.90;;;13.40;99.90;;;;;;5034863;28;20438;-76
2022/12/23 02:12:48;;;;;;;1999.90;999.90;;;13.30;99.90;;;;;;5034428;28;20115;-76
2022/12/23 02:18:33;;;;;;;1999.90;999.90;;;13.40;99.90;;;;;;5035137;28;20439;-76
2022/12/23 02:21:12;;;;;;;1999.90;999.90;;;13.40;99.90;;;;;;5042470;28;20021;-76
2022/12/23 02:23:46;;;;;;;1999.90;999.90;;;13.50;99.90;;;;;;5054652;28;20507;-75
2022/12/23 02:26:14;;;;;;;1999.90;999.90;;;13.50;99.90;;;;;;5054121;28;20498;-76
2022/12/23 02:29:10;;;;;;;1999.90;999.90;;;13.60;99.90;;;;;;5054603;28;20395;-74
2022/12/23 02:31:50;;;;;;;1999.90;999.90;;;13.60;99.90;;;;;;5054555;28;20025;-76
2022/12/23 02:34:25;;;;;;;1999.90;999.90;;;13.60;99.90;;;;;;5054360;28;20461;-76
2022/12/23 02:37:12;;;;;;;1999.90;999.90;;;13.70;99.90;;;;;;5052770;28;20067;-73
2022/12/23 02:39:53;;;;;;;1999.90;999.90;;;13.60;99.90;;;;;;5054372;28;20396;-75
2022/12/23 02:42:24;;;;;;;1999.90;999.90;;;13.60;99.90;;;;;;5053976;28;20461;-74
2022/12/23 02:44:52;;;;;;;1999.90;999.90;;;13.60;99.90;;;;;;5052471;28;20029;-74
2022/12/23 02:47:28;;;;;;;1999.90;999.90;;;13.50;99.90;;;;;;5054064;28;20029;-75
2022/12/23 02:49:59;;;;;;;1999.90;999.90;;;13.50;99.90;;;;;;5053482;28;20029;-77
2022/12/23 02:52:36;;;;;;;1999.90;999.90;;;13.50;99.90;;;;;;5053933;28;20037;-75
2022/12/23 02:55:11;;;;;;;1999.90;999.90;;;13.50;99.90;;;;;;5053755;28;20029;-73
2022/12/23 02:57:40;;;;;;;1999.90;999.90;;;13.60;99.90;;;;;;5053613;28;20066;-74
2022/12/23 03:00:07;;;;;;;1999.90;999.90;;;13.60;99.90;;;;;;5053342;28;20461;-74
2022/12/23 03:02:36;;;;;;;1999.90;999.90;;;13.60;99.90;;;;;;5053837;28;20120;-74
2022/12/23 03:05:02;;;;;;;1999.90;999.90;;;13.70;99.90;;;;;;5053397;28;20057;-73
2022/12/23 03:07:41;;;;;;;1999.90;999.90;;;13.70;99.90;;;;;;5052522;28;20029;-76
2022/12/23 03:10:34;;;;;;;1999.90;999.90;;;13.70;99.90;;;;;;5053687;28;20446;-74
2022/12/23 03:13:09;;;;;;;1999.90;999.90;;;13.60;99.90;;;;;;5053068;28;20029;-75
2022/12/23 03:15:47;;;;;;;1999.90;999.90;;;13.70;99.90;;;;;;5053292;28;20043;-76
2022/12/23 03:18:58;;;;;;;1999.90;999.90;;;13.60;99.90;;;;;;5053252;28;20032;-76
2022/12/23 03:21:52;;;;;;;1999.90;999.90;;;13.60;99.90;;;;;;5011332;28;20022;-75
2022/12/23 03:24:48;;;;;;;1999.90;999.90;;;13.60;99.90;;;;;;4998340;28;20113;-76
2022/12/23 03:27:25;;;;;;;1999.90;999.90;;;13.60;99.90;;;;;;5011083;28;20632;-76
2022/12/23 03:30:06;;;;;;;1999.90;999.90;;;13.50;99.90;;;;;;5011218;28;20038;-77
2022/12/23 03:32:45;;;;;;;1999.90;999.90;;;13.40;99.90;;;;;;5011259;28;20064;-74
2022/12/23 03:35:15;;;;;;;1999.90;999.90;;;13.50;99.90;;;;;;5010860;28;20046;-74
2022/12/23 03:37:45;;;;;;;1999.90;999.90;;;13.60;99.90;;;;;;5011359;28;20057;-76
2022/12/23 03:40:40;;;;;;;1999.90;999.90;;;13.60;99.90;;;;;;5011324;28;20456;-74
2022/12/23 03:43:21;;;;;;;1999.90;999.90;;;13.70;99.90;;;;;;5011044;28;20113;-76
2022/12/23 03:46:01;;;;;;;1999.90;999.90;;;13.80;99.90;;;;;;5011139;28;20037;-74
2022/12/23 03:48:35;;;;;;;1999.90;999.90;;;13.80;99.90;;;;;;4994313;28;20042;-75
2022/12/23 03:51:09;;;;;;;1999.90;999.90;;;13.80;99.90;;;;;;5010766;28;20092;-74
2022/12/23 03:53:59;;;;;;;1999.90;999.90;;;13.80;99.90;;;;;;5011010;28;20105;-75
2022/12/23 03:56:31;;;;;;;1999.90;999.90;;;13.90;99.90;;;;;;5049673;28;20037;-76
2022/12/23 03:59:01;;;;;;;1999.90;999.90;;;13.90;99.90;;;;;;5050554;28;20032;-74
2022/12/23 04:01:51;;;;;;;1999.90;999.90;;;13.80;99.90;;;;;;5052572;28;20083;-74
2022/12/23 04:04:25;;;;;;;1999.90;999.90;;;13.80;99.90;;;;;;5051982;28;20874;-76
2022/12/23 04:07:06;;;;;;;1999.90;999.90;;;13.80;99.90;;;;;;5052483;28;20025;-74
2022/12/23 04:09:33;;;;;;;1999.90;999.90;;;13.80;99.90;;;;;;5052561;28;20021;-76
2022/12/23 04:12:00;;;;;;;1999.90;999.90;;;13.80;99.90;;;;;;5052348;28;20477;-76
2022/12/23 04:14:25;;;;;;;1999.90;999.90;;;13.70;99.90;;;;;;5050917;28;20047;-75
2022/12/23 04:16:55;;;;;;;1999.90;999.90;;;13.80;99.90;;;;;;5051724;28;20053;-74
2022/12/23 04:19:20;;;;;;;1999.90;999.90;;;13.80;99.90;;;;;;5051145;28;20025;-76
2022/12/23 04:21:46;;;;;;;1999.90;999.90;;;13.80;99.90;;;;;;5052250;28;20040;-76
2022/12/23 04:24:12;;;;;;;1999.90;999.90;;;13.80;99.90;;;;;;5052084;28;20433;-75
2022/12/23 04:26:38;;;;;;;1999.90;999.90;;;13.90;99.90;;;;;;5051852;28;20021;-74
2022/12/23 04:29:04;;;;;;;1999.90;999.90;;;13.90;99.90;;;;;;5052167;28;20392;-75
2022/12/23 04:31:30;;;;;;;1999.90;999.90;;;13.90;99.90;;;;;;5050726;28;20056;-74
2022/12/23 04:33:56;;;;;;;1999.90;999.90;;;14.00;99.90;;;;;;5052185;28;20060;-74
2022/12/23 04:36:21;;;;;;;1999.90;999.90;;;14.00;99.90;;;;;;5052096;28;20025;-76
2022/12/23 04:38:47;;;;;;;1999.90;999.90;;;14.00;99.90;;;;;;5052084;28;20082;-75
2022/12/23 04:41:13;;;;;;;1999.90;999.90;;;14.10;99.90;;;;;;5051824;28;20028;-75
2022/12/23 04:43:38;;;;;;;1999.90;999.90;;;14.20;99.90;;;;;;5051970;28;20036;-74
2022/12/23 04:46:04;;;;;;;1999.90;999.90;;;14.10;99.90;;;;;;5051890;28;20497;-75
2022/12/23 04:48:29;;;;;;;1999.90;999.90;;;14.10;99.90;;;;;;5051988;28;20032;-75
2022/12/23 04:50:55;;;;;;;1999.90;999.90;;;14.10;99.90;;;;;;5051805;28;20397;-76
2022/12/23 04:53:21;;;;;;;1999.90;999.90;;;14.10;99.90;;;;;;5052024;28;20025;-74
2022/12/23 04:55:50;;;;;;;1999.90;999.90;;;14.10;99.90;;;;;;5050457;28;20400;-75
2022/12/23 04:58:15;;;;;;;1999.90;999.90;;;14.10;99.90;;;;;;5052172;28;20025;-74
2022/12/23 05:00:41;;;;;;;1999.90;999.90;;;14.20;99.90;;;;;;5051087;28;20082;-74
2022/12/23 05:03:07;;;;;;;1999.90;999.90;;;14.10;99.90;;;;;;5051516;28;20028;-76
2022/12/23 05:05:32;;;;;;;1999.90;999.90;;;14.20;99.90;;;;;;5052009;28;20037;-74
2022/12/23 05:08:03;;;;;;;1999.90;999.90;;;14.20;99.90;;;;;;5051959;28;20028;-74
2022/12/23 05:10:29;;;;;;;1999.90;999.90;;;14.30;99.90;;;;;;5051747;28;20040;-74
2022/12/23 05:12:54;;;;;;;1999.90;999.90;;;14.30;99.90;;;;;;5051264;28;20032;-75
2022/12/23 05:15:20;;;;;;;1999.90;999.90;;;14.50;99.90;;;;;;5051483;28;20036;-77
2022/12/23 05:17:46;;;;;;;1999.90;999.90;;;14.60;99.90;;;;;;5052241;28;20067;-75
2022/12/23 05:20:11;;;;;;;1999.90;999.90;;;14.60;99.90;;;;;;5051125;28;20108;-74
2022/12/23 05:22:37;;;;;;;1999.90;999.90;;;14.60;99.90;;;;;;5051693;28;20033;-74
2022/12/23 05:25:03;;;;;;;1999.90;999.90;;;14.60;99.90;;;;;;5051282;28;20044;-74
2022/12/23 05:27:28;;;;;;;1999.90;999.90;;;14.60;99.90;;;;;;5051555;28;20523;-75
2022/12/23 05:29:54;;;;;;;1999.90;999.90;;;14.70;99.90;;;;;;5051535;28;20028;-76
2022/12/23 05:32:19;;;;;;;1999.90;999.90;;;14.70;99.90;;;;;;5051619;28;20036;-76
2022/12/23 05:34:45;;;;;;;1999.90;999.90;;;14.70;99.90;;;;;;5051588;28;20021;-75
2022/12/23 05:37:11;;;;;;;1999.90;999.90;;;14.70;99.90;;;;;;5051808;28;20112;-76
2022/12/23 05:39:36;;;;;;;1999.90;999.90;;;14.70;99.90;;;;;;5052484;28;20025;-74
2022/12/23 05:42:02;;;;;;;1999.90;999.90;;;14.50;99.90;;;;;;5055169;28;20392;-76
2022/12/23 05:44:28;;;;;;;1999.90;999.90;;;14.40;99.90;;;;;;5055072;28;20025;-73
2022/12/23 05:46:53;;;;;;;1999.90;999.90;;;14.40;99.90;;;;;;5055089;28;20033;-74
2022/12/23 05:49:19;;;;;;;1999.90;999.90;;;14.30;99.90;;;;;;5055293;28;20083;-74
2022/12/23 05:51:44;;;;;;;1999.90;999.90;;;14.30;99.90;;;;;;5055255;28;20103;-74
2022/12/23 05:54:10;;;;;;;1999.90;999.90;;;14.30;99.90;;;;;;5055271;28;20064;-74
2022/12/23 05:56:36;;;;;;;1999.90;999.90;;;14.30;99.90;;;;;;5054828;28;20112;-75
2022/12/23 05:59:01;;;;;;;1999.90;999.90;;;14.30;99.90;;;;;;5054704;28;20021;-73
2022/12/23 06:01:27;;;;;;;1999.90;999.90;;;14.30;99.90;;;;;;5054594;28;20028;-75
2022/12/23 06:03:53;;;;;;;1999.90;999.90;;;14.30;99.90;;;;;;5055480;28;20048;-74
2022/12/23 06:06:19;;;;;;;1999.90;999.90;;;14.30;99.90;;;;;;5054848;28;20033;-75
2022/12/23 06:08:44;;;;;;;1999.90;999.90;;;14.40;99.90;;;;;;5054395;28;20111;-73
2022/12/23 06:11:11;;;;;;;1999.90;999.90;;;14.40;99.90;;;;;;5054534;28;20100;-76
2022/12/23 06:13:37;;;;;;;1999.90;999.90;;;14.40;99.90;;;;;;5054829;28;20074;-74
2022/12/23 06:16:03;;;;;;;1999.90;999.90;;;14.40;99.90;;;;;;5055095;28;20033;-75
2022/12/23 06:18:28;;;;;;;1999.90;999.90;;;14.50;99.90;;;;;;5054731;28;20040;-76
2022/12/23 06:20:54;;;;;;;1999.90;999.90;;;14.60;99.90;;;;;;5054710;28;20039;-76
2022/12/23 06:23:19;;;;;;;1999.90;999.90;;;14.70;99.90;;;;;;5054665;28;20029;-75
2022/12/23 06:25:45;;;;;;;1999.90;999.90;;;14.60;99.90;;;;;;5052884;28;20033;-73
2022/12/23 06:28:11;;;;;;;1999.90;999.90;;;14.60;99.90;;;;;;5054449;28;20492;-74
2022/12/23 06:30:36;;;;;;;1999.90;999.90;;;14.70;99.90;;;;;;5054016;28;20078;-74
2022/12/23 06:33:02;;;;;;;1999.90;999.90;;;14.70;99.90;;;;;;5054279;28;20504;-74
2022/12/23 06:35:27;;;;;;;1999.90;999.90;;;14.70;99.90;;;;;;5050706;28;20440;-73
2022/12/23 06:37:53;;;;;;;1999.90;999.90;;;14.60;99.90;;;;;;5038254;28;20098;-74
2022/12/23 06:40:19;;;;;;;1999.90;999.90;;;14.60;99.90;;;;;;5053596;28;20044;-73
2022/12/23 06:42:44;;;;;;;1999.90;999.90;;;14.60;99.90;;;;;;5046327;28;20108;-73
2022/12/23 06:45:10;;;;;;;1999.90;999.90;;;14.60;99.90;;;;;;5053033;28;20064;-73
2022/12/23 06:47:36;;;;;;;1999.90;999.90;;;14.60;99.90;;;;;;5074073;28;20036;-74
2022/12/23 06:50:02;;;;;;;1999.90;999.90;;;14.60;99.90;;;;;;5073526;28;20024;-73
2022/12/23 06:52:28;;;;;;;1999.90;999.90;;;14.60;99.90;;;;;;5048557;28;20033;-75
2022/12/23 06:54:53;;;;;;;1999.90;999.90;;;14.70;99.90;;;;;;5053121;28;20537;-75
2022/12/23 06:57:19;;;;;;;1999.90;999.90;;;14.80;99.90;;;;;;5053262;28;20538;-73
2022/12/23 06:59:44;;;;;;;1999.90;999.90;;;14.80;99.90;;;;;;5052055;28;20074;-75
2022/12/23 07:02:10;;;;;;;1999.90;999.90;;;14.80;99.90;;;;;;5052471;28;20056;-73
2022/12/23 07:04:36;;;;;;;1999.90;999.90;;;14.60;99.90;;;;;;5052974;28;20103;-74
2022/12/23 07:07:02;;;;;;;1999.90;999.90;;;14.60;99.90;;;;;;5051665;28;20045;-73
2022/12/23 07:09:27;;;;;;;1999.90;999.90;;;14.50;99.90;;;;;;5053133;28;20025;-76
2022/12/23 07:11:53;;;;;;;1999.90;999.90;;;14.30;99.90;;;;;;5052895;28;20549;-75
2022/12/23 07:14:18;;;;;;;1999.90;999.90;;;14.20;99.90;;;;;;5052582;28;20403;-73
2022/12/23 07:16:45;;;;;;;1999.90;999.90;;;14.00;99.90;;;;;;5050915;28;20032;-73
2022/12/23 07:19:10;;;;;;;1999.90;999.90;;;13.90;99.90;;;;;;5053074;28;20032;-73
2022/12/23 07:21:37;;;;;;;1999.90;999.90;;;13.90;99.90;;;;;;5052577;28;20072;-75
2022/12/23 07:24:04;;;;;;;1999.90;999.90;;;13.90;99.90;;;;;;5053031;28;20025;-76
2022/12/23 07:26:30;;;;;;;1999.90;999.90;;;13.90;99.90;;;;;;5052427;28;20040;-76
2022/12/23 07:28:55;;;;;;;1999.90;999.90;;;14.00;99.90;;;;;;5053050;28;20029;-74
2022/12/23 07:31:21;;;;;;;1999.90;999.90;;;14.20;99.90;;;;;;5052518;28;20033;-73
2022/12/23 07:33:47;;;;;;;1999.90;999.90;;;14.30;99.90;;;;;;5052670;28;20025;-74
2022/12/23 07:36:13;;;;;;;1999.90;999.90;;;14.40;99.90;;;;;;5052232;28;20025;-73
2022/12/23 07:38:38;;;;;;;1999.90;999.90;;;14.50;99.90;;;;;;5050137;28;20407;-74
2022/12/23 07:41:04;;;;;;;1999.90;999.90;;;14.50;99.90;;;;;;5057847;28;20035;-73
2022/12/23 07:43:29;;;;;;;1999.90;999.90;;;14.50;99.90;;;;;;5059602;28;20029;-76
2022/12/23 07:45:55;;;;;;;1999.90;999.90;;;14.40;99.90;;;;;;5052157;28;20477;-73
2022/12/23 07:48:21;;;;;;;1999.90;999.90;;;14.20;99.90;;;;;;5052445;28;20025;-76
2022/12/23 07:50:46;;;;;;;1999.90;999.90;;;13.80;99.90;;;;;;5052234;28;20029;-75
2022/12/23 07:53:12;;;;;;;1999.90;999.90;;;13.60;99.90;;;;;;5052301;28;20111;-73
2022/12/23 07:55:37;;;;;;;1999.90;999.90;;;13.50;99.90;;;;;;5054404;28;20078;-75
2022/12/23 07:58:03;;;;;;;1999.90;999.90;;;13.50;99.90;;;;;;5051791;28;20013;-73
2022/12/23 08:00:28;;;;;;;1999.90;999.90;;;13.50;99.90;;;;;;5051986;28;20029;-73
2022/12/23 08:02:54;;;;;;;1999.90;999.90;;;13.60;99.90;;;;;;5049325;28;20043;-75
2022/12/23 08:05:20;;;;;;;1999.90;999.90;;;13.70;99.90;;;;;;5051568;28;20456;-76
2022/12/23 08:07:48;;;;;;;1999.90;999.90;;;13.70;99.90;;;;;;5051779;28;20037;-73
2022/12/23 08:10:13;;;;;;;1999.90;999.90;;;13.80;99.90;;;;;;5051801;28;20020;-73
2022/12/23 08:12:39;;;;;;;1999.90;999.90;;;13.80;99.90;;;;;;5050982;28;20047;-75
2022/12/23 08:15:06;;;;;;;1999.90;999.90;;;13.70;99.90;;;;;;5051326;28;20060;-75
2022/12/23 08:17:31;;;;;;;1999.90;999.90;;;13.80;99.90;;;;;;5051779;28;20404;-75
2022/12/23 08:19:57;;;;;;;1999.90;999.90;;;13.70;99.90;;;;;;5050642;28;20035;-75
2022/12/23 08:22:23;;;;;;;1999.90;999.90;;;13.80;99.90;;;;;;5051073;28;20033;-75
2022/12/23 08:24:49;;;;;;;1999.90;999.90;;;13.80;99.90;;;;;;5051104;28;20439;-74
2022/12/23 08:27:15;;;;;;;1999.90;999.90;;;13.90;99.90;;;;;;5050712;28;20045;-75
2022/12/23 08:29:41;;;;;;;1999.90;999.90;;;13.90;99.90;;;;;;5068584;28;20081;-73
2022/12/23 08:32:07;;;;;;;1999.90;999.90;;;13.90;99.90;;;;;;5071073;28;20032;-74
2022/12/23 08:34:34;;;;;;;1999.90;999.90;;;13.90;99.90;;;;;;5058101;28;20874;-73
2022/12/23 08:37:00;;;;;;;1999.90;999.90;;;13.90;99.90;;;;;;5050575;28;20420;-73
2022/12/23 08:39:26;;;;;;;1999.90;999.90;;;13.90;99.90;;;;;;5051489;28;20025;-73
2022/12/23 08:41:52;;;;;;;1999.90;999.90;;;13.90;99.90;;;;;;5050437;28;20029;-75
2022/12/23 08:44:18;;;;;;;1999.90;999.90;;;13.80;99.90;;;;;;5051161;28;20051;-76
2022/12/23 08:46:44;;;;;;;1999.90;999.90;;;13.70;99.90;;;;;;5059096;28;20388;-75
2022/12/23 08:49:09;;;;;;;1999.90;999.90;;;13.70;99.90;;;;;;5071081;28;20033;-73
2022/12/23 08:51:36;;;;;;;1999.90;999.90;;;13.70;99.90;;;;;;5070941;28;20484;-73
2022/12/23 08:54:02;;;;;;;1999.90;999.90;;;13.60;99.90;;;;;;5054974;28;20036;-73
2022/12/23 08:56:34;;;;;;;1999.90;999.90;;;13.60;99.90;;;;;;5050700;28;20032;-73
2022/12/23 08:59:00;;;;;;;1999.90;999.90;;;13.70;99.90;;;;;;5049824;28;20021;-75
2022/12/23 09:01:28;;;;;;;1999.90;999.90;;;13.70;99.90;;;;;;5057584;28;20024;-76
2022/12/23 09:03:53;;;;;;;1999.90;999.90;;;13.70;99.90;;;;;;5064325;28;20186;-73
2022/12/23 09:06:27;;;;;;;1999.90;999.90;;;13.70;99.90;;;;;;5064786;28;20116;-74
2022/12/23 09:08:54;;;;;;;1999.90;999.90;;;13.70;99.90;;;;;;5050831;28;20079;-73
2022/12/23 09:11:24;;;;;;;1999.90;999.90;;;13.80;99.90;;;;;;5050737;28;20090;-73
2022/12/23 09:13:50;;;;;;;1999.90;999.90;;;13.80;99.90;;;;;;5050731;28;20036;-73
2022/12/23 09:16:17;;;;;;;1999.90;999.90;;;13.70;99.90;;;;;;5054442;28;20021;-73
2022/12/23 09:18:42;;;;;;;1999.90;999.90;;;13.80;99.90;;;;;;5053829;28;20029;-75
2022/12/23 09:21:17;;;;;;;1999.90;999.90;;;13.70;99.90;;;;;;5054607;28;20400;-75
2022/12/23 09:23:42;;;;;;;1999.90;999.90;;;13.70;99.90;;;;;;5054424;28;20029;-73
2022/12/23 09:26:24;;;;;;;1999.90;999.90;;;13.70;99.90;;;;;;5050789;28;20032;-73
2022/12/23 09:28:50;;;;;;;1999.90;999.90;;;13.60;99.90;;;;;;5056307;28;20081;-73
2022/12/23 09:31:15;;;;;;;1999.90;999.90;;;13.50;99.90;;;;;;5053326;28;20028;-73
2022/12/23 09:33:41;;;;;;;1999.90;999.90;;;13.50;99.90;;;;;;5053398;28;20036;-73
2022/12/23 09:36:08;;;;;;;1999.90;999.90;;;13.40;99.90;;;;;;5054809;28;20507;-76
2022/12/23 09:38:34;;;;;;;1999.90;999.90;;;13.40;99.90;;;;;;5054374;28;20499;-75
2022/12/23 09:41:15;;;;;;;1999.90;999.90;;;13.40;99.90;;;;;;5053544;28;20126;-73
2022/12/23 09:43:59;;;;;;;1999.90;999.90;;;13.40;99.90;;;;;;5053471;28;20159;-73
2022/12/23 09:46:28;;;;;;;1999.90;999.90;;;13.40;99.90;;;;;;5051209;28;20064;-75
2022/12/23 09:49:11;;;;;;;1999.90;999.90;;;13.30;99.90;;;;;;5054125;28;20116;-75
2022/12/23 09:51:37;;;;;;;1999.90;999.90;;;13.40;99.90;;;;;;5052943;28;20111;-73
2022/12/23 09:54:27;;;;;;;1999.90;999.90;;;13.40;99.90;;;;;;5054580;28;20668;-73
2022/12/23 09:56:56;;;;;;;1999.90;999.90;;;13.50;99.90;;;;;;5053744;28;20055;-74
2022/12/23 09:59:35;;;;;;;1999.90;999.90;;;13.50;99.90;;;;;;5061357;28;20042;-75
2022/12/23 10:02:28;;;;;;;1999.90;999.90;;;13.50;99.90;;;;;;5073538;28;20056;-75
2022/12/23 10:05:13;;;;;;;1999.90;999.90;;;13.60;99.90;;;;;;5073623;28;20048;-75
2022/12/23 10:07:38;;;;;;;1999.90;999.90;;;13.70;99.90;;;;;;5073871;28;20029;-73
2022/12/23 10:10:30;;;;;;;1999.90;999.90;;;13.70;99.90;;;;;;5074414;28;20028;-73
2022/12/23 10:12:59;;;;;;;1999.90;999.90;;;13.70;99.90;;;;;;5055042;28;20052;-74
2022/12/23 10:15:31;;;;;;;1999.90;999.90;;;13.70;99.90;;;;;;5051912;28;20079;-72
2022/12/23 10:18:03;;;;;;;1999.90;999.90;;;13.70;99.90;;;;;;5053490;28;20029;-75
2022/12/23 10:21:00;;;;;;;1999.90;999.90;;;13.70;99.90;;;;;;5053380;28;20021;-73
2022/12/23 10:23:38;;;;;;;1999.90;999.90;;;13.70;99.90;;;;;;5062466;28;20136;-73
2022/12/23 10:26:19;;;;;;;1999.90;999.90;;;13.70;99.90;;;;;;5073107;28;20033;-74
2022/12/23 10:28:45;;;;;;;1999.90;999.90;;;13.70;99.90;;;;;;5057523;28;20102;-73
2022/12/23 10:31:15;;;;;;;1999.90;999.90;;;13.80;99.90;;;;;;5053283;28;20048;-73
2022/12/23 10:33:47;;;;;;;1999.90;999.90;;;13.80;99.90;;;;;;5049302;28;20127;-73
2022/12/23 10:36:35;;;;;;;1999.90;999.90;;;13.90;99.90;;;;;;5053521;28;20048;-73
2022/12/23 10:39:14;;;;;;;1999.90;999.90;;;13.90;99.90;;;;;;5052514;28;20039;-75
2022/12/23 10:42:07;;;;;;;1999.90;999.90;;;13.90;99.90;;;;;;5052264;28;20018;-73
2022/12/23 10:44:56;;;;;;;1999.90;999.90;;;13.80;99.90;;;;;;5051269;28;20033;-73
2022/12/23 10:47:42;;;;;;;1999.90;999.90;;;13.80;99.90;;;;;;5051306;28;20092;-73
2022/12/23 10:50:30;;;;;;;1999.90;999.90;;;13.90;99.90;;;;;;5048283;28;20079;-76
2022/12/23 10:53:00;;;;;;;1999.90;999.90;;;13.90;99.90;;;;;;5066005;28;20029;-75
2022/12/23 10:55:31;;;;;;;1999.90;999.90;;;14.00;99.90;;;;;;5061881;28;20044;-73
2022/12/23 10:58:13;;;;;;;1999.90;999.90;;;14.10;99.90;;;;;;5053627;28;20037;-74
2022/12/23 11:00:43;;;;;;;1999.90;999.90;;;14.10;99.90;;;;;;5053461;28;20074;-73
2022/12/23 11:03:17;;;;;;;1999.90;999.90;;;14.10;99.90;;;;;;5052762;28;20032;-75
2022/12/23 11:05:44;;;;;;;1999.90;999.90;;;14.00;99.90;;;;;;5049757;28;20037;-75
2022/12/23 11:08:10;;;;;;;1999.90;999.90;;;13.90;99.90;;;;;;5053684;28;20029;-75
2022/12/23 11:10:35;;;;;;;1999.90;999.90;;;14.00;99.90;;;;;;5053189;28;20037;-74
2022/12/23 11:13:01;;;;;;;1999.90;999.90;;;13.90;99.90;;;;;;5053010;28;20043;-75
2022/12/23 11:15:37;;;;;;;1999.90;999.90;;;14.00;99.90;;;;;;5053444;28;20037;-73
2022/12/23 11:18:11;;;;;;;1999.90;999.90;;;14.00;99.90;;;;;;5053614;28;20415;-75
2022/12/23 11:20:39;;;;;;;1999.90;999.90;;;14.00;99.90;;;;;;5051037;28;20040;-74
2022/12/23 11:23:21;;;;;;;1999.90;999.90;;;14.00;99.90;;;;;;5052962;28;20029;-74
2022/12/23 11:25:47;;;;;;;1999.90;999.90;;;13.90;99.90;;;;;;5052900;28;20110;-74
2022/12/23 11:28:18;;;;;;;1999.90;999.90;;;13.80;99.90;;;;;;5053768;28;20476;-74
2022/12/23 11:30:54;;;;;;;1999.90;999.90;;;13.70;99.90;;;;;;5053092;28;20037;-74
2022/12/23 11:33:25;;;;;;;1999.90;999.90;;;13.70;99.90;;;;;;5052634;28;20028;-73
2022/12/23 11:36:13;;;;;;;1999.90;999.90;;;13.70;99.90;;;;;;5053396;28;20087;-74
2022/12/23 11:38:52;;;;;;;1999.90;999.90;;;13.80;99.90;;;;;;5052354;28;20768;-76
2022/12/23 11:41:26;;;;;;;1999.90;999.90;;;13.90;99.90;;;;;;5048491;28;20385;-73
2022/12/23 11:44:27;;;;;;;1999.90;999.90;;;13.90;99.90;;;;;;5051827;28;20025;-76
2022/12/23 11:46:53;;;;;;;1999.90;999.90;;;13.80;99.90;;;;;;5064176;28;20104;-76
2022/12/23 11:49:20;;;;;;;1999.90;999.90;;;13.80;99.90;;;;;;5052671;28;20488;-75
2022/12/23 11:52:05;;;;;;;1999.90;999.90;;;13.70;99.90;;;;;;5052585;28;20419;-75
2022/12/23 11:54:31;;;;;;;1999.90;999.90;;;13.70;99.90;;;;;;5052532;28;20037;-73
2022/12/23 11:57:00;;;;;;;1999.90;999.90;;;13.70;99.90;;;;;;5052346;28;20067;-74
2022/12/23 11:59:47;;;;;;;1999.90;999.90;;;13.70;99.90;;;;;;5052625;28;20041;-73
2022/12/23 12:02:17;;;;;;;1999.90;999.90;;;13.70;99.90;;;;;;5052365;28;21000;-73
2022/12/23 12:04:54;;;;;;;1999.90;999.90;;;13.70;99.90;;;;;;5052050;28;20534;-75
2022/12/23 12:07:20;;;;;;;1999.90;999.90;;;13.60;99.90;;;;;;5052172;28;20094;-73
2022/12/23 12:09:46;;;;;;;1999.90;999.90;;;13.60;99.90;;;;;;5051180;28;20025;-74
2022/12/23 12:12:16;;;;;;;1999.90;999.90;;;13.60;99.90;;;;;;5052031;28;20036;-75
2022/12/23 12:14:45;;;;;;;1999.90;999.90;;;13.60;99.90;;;;;;5051901;28;20029;-73
2022/12/23 12:17:34;;;;;;;1999.90;999.90;;;13.60;99.90;;;;;;5052432;28;20056;-74
2022/12/23 12:20:15;;;;;;;1999.90;999.90;;;13.70;99.90;;;;;;5052195;28;20017;-74
2022/12/23 12:22:51;;;;;;;1999.90;999.90;;;13.70;99.90;;;;;;5051791;28;20033;-74
2022/12/23 12:25:45;;;;;;;1999.90;999.90;;;13.80;99.90;;;;;;5050598;28;20028;-73
2022/12/23 12:28:22;;;;;;;1999.90;999.90;;;13.80;99.90;;;;;;5050012;28;20053;-74
2022/12/23 12:31:01;;;;;;;1999.90;999.90;;;13.90;99.90;;;;;;5049725;28;20583;-74
2022/12/23 12:33:27;;;;;;;1999.90;999.90;;;13.90;99.90;;;;;;5063265;28;20032;-75
2022/12/23 12:36:05;;;;;;;1999.90;999.90;;;13.90;99.90;;;;;;5072358;28;20031;-75
2022/12/23 12:38:32;;;;;;;1999.90;999.90;;;13.90;99.90;;;;;;5072036;28;20091;-76
2022/12/23 12:41:05;;;;;;;1999.90;999.90;;;13.90;99.90;;;;;;5071039;28;20029;-74
2022/12/23 12:43:35;;;;;;;1999.90;999.90;;;13.80;99.90;;;;;;5042396;28;20087;-74
2022/12/23 12:46:19;;;;;;;1999.90;999.90;;;13.80;99.90;;;;;;5032204;28;20076;-74